sensor_id;sensor_type;location;lat;lon;timestamp;pressure;altitude;pressure_sealevel;temperature;humidity
70304;BME280;57712;48.752;11.348;2023-04-06T00:02:24;97807.00;;;-0.62;100.00
70304;BME280;57712;48.752;11.348;2023-04-06T00:04:51;97805.66;;;-0.68;100.00
70304;BME280;57712;48.752;11.348;2023-04-06T00:07:17;97798.72;;;-0.69;100.00
70304;BME280;57712;48.752;11.348;2023-04-06T00:09:44;97797.59;;;-0.68;100.00
70304;BME280;57712;48.752;11.348;2023-04-06T00:12:11;97791.19;;;-0.75;100.00
70304;BME280;57712;48.752;11.348;2023-04-06T00:14:37;97792.09;;;-0.71;100.00
70304;BME280;57712;48.752;11.348;2023-04-06T00:17:04;97793.53;;;-0.74;100.00
70304;BME280;57712;48.752;11.348;2023-04-06T00:19:31;97798.13;;;-0.74;100.00
70304;BME280;57712;48.752;11.348;2023-04-06T00:21:58;97797.94;;;-0.81;100.00
70304;BME280;57712;48.752;11.348;2023-04-06T00:24:25;97802.53;;;-0.82;100.00
70304;BME280;57712;48.752;11.348;2023-04-06T00:26:51;97797.16;;;-0.82;100.00
70304;BME280;57712;48.752;11.348;2023-04-06T00:29:18;97798.59;;;-0.84;100.00
70304;BME280;57712;48.752;11.348;2023-04-06T00:31:45;97796.91;;;-0.89;100.00
70304;BME280;57712;48.752;11.348;2023-04-06T00:34:12;97787.72;;;-0.88;100.00
70304;BME280;57712;48.752;11.348;2023-04-06T00:36:38;97795.78;;;-0.88;100.00
70304;BME280;57712;48.752;11.348;2023-04-06T00:39:05;97793.56;;;-0.98;100.00
70304;BME280;57712;48.752;11.348;2023-04-06T00:41:32;97794.34;;;-0.98;100.00
70304;BME280;57712;48.752;11.348;2023-04-06T00:43:59;97794.34;;;-0.98;100.00
70304;BME280;57712;48.752;11.348;2023-04-06T00:46:25;97793.44;;;-1.02;100.00
70304;BME280;57712;48.752;11.348;2023-04-06T00:48:52;97799.59;;;-1.01;100.00
70304;BME280;57712;48.752;11.348;2023-04-06T00:51:19;97790.75;;;-1.02;100.00
70304;BME280;57712;48.752;11.348;2023-04-06T00:53:45;97794.22;;;-1.01;100.00
70304;BME280;57712;48.752;11.348;2023-04-06T00:56:12;97790.63;;;-1.05;100.00
70304;BME280;57712;48.752;11.348;2023-04-06T00:58:39;97792.88;;;-1.07;100.00
70304;BME280;57712;48.752;11.348;2023-04-06T01:01:07;97790.53;;;-1.09;100.00
70304;BME280;57712;48.752;11.348;2023-04-06T01:03:33;97783.91;;;-1.11;100.00
70304;BME280;57712;48.752;11.348;2023-04-06T01:06:00;97786.25;;;-1.22;100.00
70304;BME280;57712;48.752;11.348;2023-04-06T01:08:27;97791.28;;;-1.21;100.00
70304;BME280;57712;48.752;11.348;2023-04-06T01:10:54;97783.22;;;-1.21;100.00
70304;BME280;57712;48.752;11.348;2023-04-06T01:13:20;97793.09;;;-1.25;100.00
70304;BME280;57712;48.752;11.348;2023-04-06T01:15:47;97788.81;;;-1.26;100.00
70304;BME280;57712;48.752;11.348;2023-04-06T01:18:14;97784.91;;;-1.28;100.00
70304;BME280;57712;48.752;11.348;2023-04-06T01:20:41;97782.31;;;-1.37;100.00
70304;BME280;57712;48.752;11.348;2023-04-06T01:23:08;97775.16;;;-1.33;100.00
70304;BME280;57712;48.752;11.348;2023-04-06T01:25:35;97775.59;;;-1.43;100.00
70304;BME280;57712;48.752;11.348;2023-04-06T01:28:01;97775.38;;;-1.38;100.00
70304;BME280;57712;48.752;11.348;2023-04-06T01:30:28;97774.91;;;-1.40;100.00
70304;BME280;57712;48.752;11.348;2023-04-06T01:32:55;97774.47;;;-1.42;100.00
70304;BME280;57712;48.752;11.348;2023-04-06T01:35:22;97777.16;;;-1.42;100.00
70304;BME280;57712;48.752;11.348;2023-04-06T01:37:50;97777.16;;;-1.42;100.00
70304;BME280;57712;48.752;11.348;2023-04-06T01:40:16;97769.09;;;-1.42;100.00
70304;BME280;57712;48.752;11.348;2023-04-06T01:42:43;97768.84;;;-1.49;100.00
70304;BME280;57712;48.752;11.348;2023-04-06T01:45:10;97763.47;;;-1.49;100.00
70304;BME280;57712;48.752;11.348;2023-04-06T01:47:37;97763.38;;;-1.53;100.00
70304;BME280;57712;48.752;11.348;2023-04-06T01:50:04;97758.78;;;-1.52;100.00
70304;BME280;57712;48.752;11.348;2023-04-06T01:52:33;97764.69;;;-1.59;100.00
70304;BME280;57712;48.752;11.348;2023-04-06T01:54:59;97765.47;;;-1.58;100.00
70304;BME280;57712;48.752;11.348;2023-04-06T01:57:26;97762.34;;;-1.60;100.00
70304;BME280;57712;48.752;11.348;2023-04-06T01:59:53;97755.41;;;-1.61;100.00
70304;BME280;57712;48.752;11.348;2023-04-06T02:02:19;97764.13;;;-1.64;100.00
70304;BME280;57712;48.752;11.348;2023-04-06T02:04:46;97762.66;;;-1.74;100.00
70304;BME280;57712;48.752;11.348;2023-04-06T02:07:13;97767.34;;;-1.71;100.00
70304;BME280;57712;48.752;11.348;2023-04-06T02:09:39;97765.44;;;-1.70;100.00
70304;BME280;57712;48.752;11.348;2023-04-06T02:12:06;97765.91;;;-1.68;100.00
70304;BME280;57712;48.752;11.348;2023-04-06T02:14:32;97755.03;;;-1.72;100.00
70304;BME280;57712;48.752;11.348;2023-04-06T02:16:59;97764.09;;;-1.77;100.00
70304;BME280;57712;48.752;11.348;2023-04-06T02:19:26;97767.44;;;-1.80;100.00
70304;BME280;57712;48.752;11.348;2023-04-06T02:21:53;97760.25;;;-1.88;100.00
70304;BME280;57712;48.752;11.348;2023-04-06T02:24:19;97764.25;;;-1.94;100.00
70304;BME280;57712;48.752;11.348;2023-04-06T02:26:46;97761.13;;;-1.96;100.00
70304;BME280;57712;48.752;11.348;2023-04-06T02:29:15;97760.69;;;-1.98;100.00
70304;BME280;57712;48.752;11.348;2023-04-06T02:31:42;97759.56;;;-1.97;100.00
70304;BME280;57712;48.752;11.348;2023-04-06T02:34:09;97757.31;;;-1.95;100.00
70304;BME280;57712;48.752;11.348;2023-04-06T02:36:38;97751.81;;;-1.98;100.00
70304;BME280;57712;48.752;11.348;2023-04-06T02:39:04;97761.75;;;-1.99;100.00
70304;BME280;57712;48.752;11.348;2023-04-06T02:41:32;97755.50;;;-2.03;100.00
70304;BME280;57712;48.752;11.348;2023-04-06T02:43:58;97762.16;;;-2.09;100.00
70304;BME280;57712;48.752;11.348;2023-04-06T02:46:25;97760.75;;;-2.07;100.00
70304;BME280;57712;48.752;11.348;2023-04-06T02:48:52;97761.28;;;-2.13;100.00
70304;BME280;57712;48.752;11.348;2023-04-06T02:51:19;97756.44;;;-2.20;100.00
70304;BME280;57712;48.752;11.348;2023-04-06T02:53:45;97751.66;;;-2.14;100.00
70304;BME280;57712;48.752;11.348;2023-04-06T02:56:13;97753.44;;;-2.18;100.00
70304;BME280;57712;48.752;11.348;2023-04-06T02:58:39;97756.56;;;-2.16;100.00
70304;BME280;57712;48.752;11.348;2023-04-06T03:01:06;97755.47;;;-2.15;100.00
70304;BME280;57712;48.752;11.348;2023-04-06T03:03:33;97756.69;;;-2.13;100.00
70304;BME280;57712;48.752;11.348;2023-04-06T03:06:00;97760.22;;;-2.21;100.00
70304;BME280;57712;48.752;11.348;2023-04-06T03:08:26;97767.94;;;-2.19;100.00
70304;BME280;57712;48.752;11.348;2023-04-06T03:10:53;97769.72;;;-2.23;100.00
70304;BME280;57712;48.752;11.348;2023-04-06T03:13:20;97762.47;;;-2.23;100.00
70304;BME280;57712;48.752;11.348;2023-04-06T03:15:47;97756.75;;;-2.21;100.00
70304;BME280;57712;48.752;11.348;2023-04-06T03:18:13;97758.81;;;-2.18;100.00
70304;BME280;57712;48.752;11.348;2023-04-06T03:20:40;97763.91;;;-2.25;100.00
70304;BME280;57712;48.752;11.348;2023-04-06T03:23:07;97761.66;;;-2.23;100.00
70304;BME280;57712;48.752;11.348;2023-04-06T03:25:34;97764.16;;;-2.18;100.00
70304;BME280;57712;48.752;11.348;2023-04-06T03:28:01;97765.75;;;-2.17;100.00
70304;BME280;57712;48.752;11.348;2023-04-06T03:30:27;97766.84;;;-2.18;100.00
70304;BME280;57712;48.752;11.348;2023-04-06T03:32:54;97758.81;;;-2.18;100.00
70304;BME280;57712;48.752;11.348;2023-04-06T03:35:21;97760.78;;;-2.27;100.00
70304;BME280;57712;48.752;11.348;2023-04-06T03:37:48;97763.25;;;-2.22;100.00
70304;BME280;57712;48.752;11.348;2023-04-06T03:40:14;97762.78;;;-2.24;100.00
70304;BME280;57712;48.752;11.348;2023-04-06T03:42:41;97767.44;;;-2.34;100.00
70304;BME280;57712;48.752;11.348;2023-04-06T03:45:08;97762.97;;;-2.29;100.00
70304;BME280;57712;48.752;11.348;2023-04-06T03:47:35;97769.66;;;-2.36;100.00
70304;BME280;57712;48.752;11.348;2023-04-06T03:50:02;97766.53;;;-2.38;100.00
70304;BME280;57712;48.752;11.348;2023-04-06T03:52:29;97776.31;;;-2.42;100.00
70304;BME280;57712;48.752;11.348;2023-04-06T03:54:56;97777.88;;;-2.41;100.00
70304;BME280;57712;48.752;11.348;2023-04-06T03:57:22;97769.44;;;-2.51;100.00
70304;BME280;57712;48.752;11.348;2023-04-06T03:59:49;97773.69;;;-2.50;100.00
70304;BME280;57712;48.752;11.348;2023-04-06T04:02:16;97781.44;;;-2.49;100.00
70304;BME280;57712;48.752;11.348;2023-04-06T04:04:42;97776.06;;;-2.49;100.00
70304;BME280;57712;48.752;11.348;2023-04-06T04:07:09;97774.03;;;-2.52;100.00
70304;BME280;57712;48.752;11.348;2023-04-06T04:09:36;97783.97;;;-2.52;100.00
70304;BME280;57712;48.752;11.348;2023-04-06T04:12:03;97784.19;;;-2.57;100.00
70304;BME280;57712;48.752;11.348;2023-04-06T04:14:30;97788.09;;;-2.55;100.00
70304;BME280;57712;48.752;11.348;2023-04-06T04:16:56;97785.75;;;-2.56;100.00
70304;BME280;57712;48.752;11.348;2023-04-06T04:19:23;97783.38;;;-2.58;100.00
70304;BME280;57712;48.752;11.348;2023-04-06T04:21:50;97793.34;;;-2.58;100.00
70304;BME280;57712;48.752;11.348;2023-04-06T04:24:16;97788.59;;;-2.62;100.00
70304;BME280;57712;48.752;11.348;2023-04-06T04:26:43;97790.50;;;-2.62;100.00
70304;BME280;57712;48.752;11.348;2023-04-06T04:29:10;97785.78;;;-2.65;100.00
70304;BME280;57712;48.752;11.348;2023-04-06T04:31:37;97794.03;;;-2.70;100.00
70304;BME280;57712;48.752;11.348;2023-04-06T04:34:04;97789.50;;;-2.78;100.00
70304;BME280;57712;48.752;11.348;2023-04-06T04:36:33;97782.09;;;-2.81;100.00
70304;BME280;57712;48.752;11.348;2023-04-06T04:38:59;97784.16;;;-2.78;100.00
70304;BME280;57712;48.752;11.348;2023-04-06T04:41:28;97780.34;;;-2.77;100.00
70304;BME280;57712;48.752;11.348;2023-04-06T04:43:54;97785.72;;;-2.77;100.00
70304;BME280;57712;48.752;11.348;2023-04-06T04:46:22;97787.66;;;-2.86;100.00
70304;BME280;57712;48.752;11.348;2023-04-06T04:48:49;97781.06;;;-2.89;100.00
70304;BME280;57712;48.752;11.348;2023-04-06T04:51:16;97787.19;;;-2.88;100.00
70304;BME280;57712;48.752;11.348;2023-04-06T04:53:42;97783.84;;;-2.85;100.00
70304;BME280;57712;48.752;11.348;2023-04-06T04:56:09;97794.56;;;-2.85;100.00
70304;BME280;57712;48.752;11.348;2023-04-06T04:58:35;97787.19;;;-2.88;100.00
70304;BME280;57712;48.752;11.348;2023-04-06T05:01:02;97802.28;;;-2.84;100.00
70304;BME280;57712;48.752;11.348;2023-04-06T05:03:32;97796.59;;;-2.82;100.00
70304;BME280;57712;48.752;11.348;2023-04-06T05:05:59;97796.09;;;-2.76;100.00
70304;BME280;57712;48.752;11.348;2023-04-06T05:08:25;97799.56;;;-2.75;100.00
70304;BME280;57712;48.752;11.348;2023-04-06T05:10:52;97800.47;;;-2.71;100.00
70304;BME280;57712;48.752;11.348;2023-04-06T05:13:19;97794.88;;;-2.78;100.00
70304;BME280;57712;48.752;11.348;2023-04-06T05:15:46;97808.69;;;-2.68;100.00
70304;BME280;57712;48.752;11.348;2023-04-06T05:18:12;97799.31;;;-2.62;100.00
70304;BME280;57712;48.752;11.348;2023-04-06T05:20:39;97796.06;;;-2.67;100.00
70304;BME280;57712;48.752;11.348;2023-04-06T05:23:06;97799.19;;;-2.65;100.00
70304;BME280;57712;48.752;11.348;2023-04-06T05:25:33;97800.50;;;-2.50;100.00
70304;BME280;57712;48.752;11.348;2023-04-06T05:28:00;97793.75;;;-2.48;100.00
70304;BME280;57712;48.752;11.348;2023-04-06T05:30:26;97806.31;;;-2.40;100.00
70304;BME280;57712;48.752;11.348;2023-04-06T05:32:53;97804.06;;;-2.38;100.00
70304;BME280;57712;48.752;11.348;2023-04-06T05:35:20;97807.16;;;-2.27;100.00
70304;BME280;57712;48.752;11.348;2023-04-06T05:37:47;97803.94;;;-2.20;100.00
70304;BME280;57712;48.752;11.348;2023-04-06T05:40:14;97806.44;;;-2.15;100.00
70304;BME280;57712;48.752;11.348;2023-04-06T05:42:41;97806.69;;;-2.08;100.00
70304;BME280;57712;48.752;11.348;2023-04-06T05:45:11;97806.09;;;-1.93;100.00
70304;BME280;57712;48.752;11.348;2023-04-06T05:47:43;97799.88;;;-1.85;100.00
70304;BME280;57712;48.752;11.348;2023-04-06T05:50:11;97806.28;;;-1.77;100.00
70304;BME280;57712;48.752;11.348;2023-04-06T05:52:38;97803.75;;;-1.61;100.00
70304;BME280;57712;48.752;11.348;2023-04-06T05:55:05;97812.94;;;-1.50;100.00
70304;BME280;57712;48.752;11.348;2023-04-06T05:57:35;97811.41;;;-1.39;100.00
70304;BME280;57712;48.752;11.348;2023-04-06T06:00:02;97806.19;;;-1.23;100.00
70304;BME280;57712;48.752;11.348;2023-04-06T06:02:33;97810.56;;;-1.19;100.00
70304;BME280;57712;48.752;11.348;2023-04-06T06:05:02;97810.34;;;-1.01;100.00
70304;BME280;57712;48.752;11.348;2023-04-06T06:07:30;97811.38;;;-0.94;100.00
70304;BME280;57712;48.752;11.348;2023-04-06T06:09:57;97815.28;;;-0.91;100.00
70304;BME280;57712;48.752;11.348;2023-04-06T06:12:25;97819.53;;;-0.78;100.00
70304;BME280;57712;48.752;11.348;2023-04-06T06:14:52;97817.53;;;-0.69;100.00
70304;BME280;57712;48.752;11.348;2023-04-06T06:17:19;97823.34;;;-0.54;100.00
70304;BME280;57712;48.752;11.348;2023-04-06T06:19:46;97810.53;;;-0.33;100.00
70304;BME280;57712;48.752;11.348;2023-04-06T06:22:12;97821.63;;;-0.22;100.00
70304;BME280;57712;48.752;11.348;2023-04-06T06:24:39;97823.13;;;-0.37;100.00
70304;BME280;57712;48.752;11.348;2023-04-06T06:27:06;97819.03;;;-0.19;100.00
70304;BME280;57712;48.752;11.348;2023-04-06T06:29:34;97819.91;;;-0.15;100.00
70304;BME280;57712;48.752;11.348;2023-04-06T06:32:04;97826.53;;;0.00;100.00
70304;BME280;57712;48.752;11.348;2023-04-06T06:34:31;97827.31;;;0.28;100.00
70304;BME280;57712;48.752;11.348;2023-04-06T06:36:58;97825.72;;;0.27;100.00
70304;BME280;57712;48.752;11.348;2023-04-06T06:39:24;97831.41;;;0.38;100.00
70304;BME280;57712;48.752;11.348;2023-04-06T06:41:51;97821.47;;;0.54;100.00
70304;BME280;57712;48.752;11.348;2023-04-06T06:44:18;97833.28;;;0.50;100.00
70304;BME280;57712;48.752;11.348;2023-04-06T06:46:46;97824.81;;;0.79;100.00
70304;BME280;57712;48.752;11.348;2023-04-06T06:49:13;97821.69;;;0.93;100.00
70304;BME280;57712;48.752;11.348;2023-04-06T06:51:40;97827.34;;;0.88;100.00
70304;BME280;57712;48.752;11.348;2023-04-06T06:54:07;97819.19;;;0.84;100.00
70304;BME280;57712;48.752;11.348;2023-04-06T06:56:34;97826.16;;;1.17;100.00
70304;BME280;57712;48.752;11.348;2023-04-06T06:59:04;97826.22;;;1.05;100.00
70304;BME280;57712;48.752;11.348;2023-04-06T07:01:32;97826.50;;;1.15;100.00
70304;BME280;57712;48.752;11.348;2023-04-06T07:03:59;97832.78;;;1.55;100.00
70304;BME280;57712;48.752;11.348;2023-04-06T07:06:25;97831.63;;;1.71;100.00
70304;BME280;57712;48.752;11.348;2023-04-06T07:08:52;97830.41;;;2.23;100.00
70304;BME280;57712;48.752;11.348;2023-04-06T07:11:19;97834.25;;;2.22;100.00
70304;BME280;57712;48.752;11.348;2023-04-06T07:13:46;97826.16;;;2.42;100.00
70304;BME280;57712;48.752;11.348;2023-04-06T07:16:12;97834.84;;;2.51;100.00
70304;BME280;57712;48.752;11.348;2023-04-06T07:18:39;97837.50;;;2.70;100.00
70304;BME280;57712;48.752;11.348;2023-04-06T07:21:06;97843.09;;;2.81;100.00
70304;BME280;57712;48.752;11.348;2023-04-06T07:23:33;97842.06;;;2.66;100.00
70304;BME280;57712;48.752;11.348;2023-04-06T07:25:59;97843.75;;;3.16;100.00
70304;BME280;57712;48.752;11.348;2023-04-06T07:28:26;97844.66;;;3.24;100.00
70304;BME280;57712;48.752;11.348;2023-04-06T07:30:53;97842.53;;;3.14;100.00
70304;BME280;57712;48.752;11.348;2023-04-06T07:33:21;97838.53;;;3.31;100.00
70304;BME280;57712;48.752;11.348;2023-04-06T07:35:48;97837.41;;;3.85;100.00
70304;BME280;57712;48.752;11.348;2023-04-06T07:38:15;97846.41;;;3.89;100.00
70304;BME280;57712;48.752;11.348;2023-04-06T07:40:42;97833.25;;;3.91;100.00
70304;BME280;57712;48.752;11.348;2023-04-06T07:43:08;97842.88;;;4.15;100.00
70304;BME280;57712;48.752;11.348;2023-04-06T07:45:36;97835.94;;;4.17;100.00
70304;BME280;57712;48.752;11.348;2023-04-06T07:48:03;97832.50;;;4.20;100.00
70304;BME280;57712;48.752;11.348;2023-04-06T07:50:30;97836.63;;;4.41;100.00
70304;BME280;57712;48.752;11.348;2023-04-06T07:52:56;97832.72;;;4.38;100.00
70304;BME280;57712;48.752;11.348;2023-04-06T07:55:24;97835.69;;;4.63;100.00
70304;BME280;57712;48.752;11.348;2023-04-06T07:57:50;97836.78;;;4.92;100.00
70304;BME280;57712;48.752;11.348;2023-04-06T08:00:17;97839.88;;;4.90;100.00
70304;BME280;57712;48.752;11.348;2023-04-06T08:02:47;97835.44;;;5.12;100.00
70304;BME280;57712;48.752;11.348;2023-04-06T08:05:14;97842.63;;;4.94;100.00
70304;BME280;57712;48.752;11.348;2023-04-06T08:07:41;97830.81;;;5.20;100.00
70304;BME280;57712;48.752;11.348;2023-04-06T08:10:09;97836.84;;;5.43;100.00
70304;BME280;57712;48.752;11.348;2023-04-06T08:12:36;97835.50;;;5.71;100.00
70304;BME280;57712;48.752;11.348;2023-04-06T08:15:03;97839.44;;;5.80;100.00
70304;BME280;57712;48.752;11.348;2023-04-06T08:17:31;97839.09;;;5.86;100.00
70304;BME280;57712;48.752;11.348;2023-04-06T08:19:58;97839.31;;;6.21;100.00
70304;BME280;57712;48.752;11.348;2023-04-06T08:22:25;97837.75;;;6.20;99.59
70304;BME280;57712;48.752;11.348;2023-04-06T08:24:52;97835.53;;;6.44;100.00
70304;BME280;57712;48.752;11.348;2023-04-06T08:27:19;97842.06;;;6.28;94.06
70304;BME280;57712;48.752;11.348;2023-04-06T08:29:47;97838.53;;;6.24;88.59
70304;BME280;57712;48.752;11.348;2023-04-06T08:32:13;97838.63;;;6.39;93.87
70304;BME280;57712;48.752;11.348;2023-04-06T08:34:40;97834.78;;;6.50;99.01
70304;BME280;57712;48.752;11.348;2023-04-06T08:37:07;97838.00;;;6.95;99.40
70304;BME280;57712;48.752;11.348;2023-04-06T08:39:34;97834.91;;;7.04;96.18
70304;BME280;57712;48.752;11.348;2023-04-06T08:42:01;97837.28;;;7.23;93.20
70304;BME280;57712;48.752;11.348;2023-04-06T08:44:31;97832.63;;;7.41;90.43
70304;BME280;57712;48.752;11.348;2023-04-06T08:46:59;97825.63;;;7.40;79.69
70304;BME280;57712;48.752;11.348;2023-04-06T08:49:27;97827.53;;;7.36;76.58
70304;BME280;57712;48.752;11.348;2023-04-06T08:51:55;97827.53;;;7.11;69.05
70304;BME280;57712;48.752;11.348;2023-04-06T08:54:22;97830.28;;;7.50;72.15
70304;BME280;57712;48.752;11.348;2023-04-06T08:56:48;97827.53;;;7.72;80.14
70304;BME280;57712;48.752;11.348;2023-04-06T08:59:15;97820.94;;;7.37;66.41
70304;BME280;57712;48.752;11.348;2023-04-06T09:01:42;97820.13;;;7.65;75.79
70304;BME280;57712;48.752;11.348;2023-04-06T09:04:12;97826.28;;;8.01;70.82
70304;BME280;57712;48.752;11.348;2023-04-06T09:06:40;97825.91;;;8.06;66.73
70304;BME280;57712;48.752;11.348;2023-04-06T09:09:07;97815.44;;;7.87;67.22
70304;BME280;57712;48.752;11.348;2023-04-06T09:11:48;97816.97;;;7.95;69.65
70304;BME280;57712;48.752;11.348;2023-04-06T09:14:15;97828.53;;;8.49;78.38
70304;BME280;57712;48.752;11.348;2023-04-06T09:16:44;97813.75;;;8.39;74.28
70304;BME280;57712;48.752;11.348;2023-04-06T09:19:12;97825.53;;;8.04;62.67
70304;BME280;57712;48.752;11.348;2023-04-06T09:21:39;97820.34;;;8.46;68.82
70304;BME280;57712;48.752;11.348;2023-04-06T09:24:09;97832.34;;;8.62;62.95
70304;BME280;57712;48.752;11.348;2023-04-06T09:26:47;97825.81;;;8.42;66.19
70304;BME280;57712;48.752;11.348;2023-04-06T09:29:24;97819.78;;;8.79;66.98
70304;BME280;57712;48.752;11.348;2023-04-06T09:32:04;97823.97;;;8.94;71.60
70304;BME280;57712;48.752;11.348;2023-04-06T09:34:33;97822.88;;;8.85;62.52
70304;BME280;57712;48.752;11.348;2023-04-06T09:37:00;97819.97;;;9.13;65.89
70304;BME280;57712;48.752;11.348;2023-04-06T09:39:27;97822.91;;;9.37;67.16
70304;BME280;57712;48.752;11.348;2023-04-06T09:41:54;97821.31;;;9.43;62.73
70304;BME280;57712;48.752;11.348;2023-04-06T09:44:22;97814.28;;;9.42;61.50
70304;BME280;57712;48.752;11.348;2023-04-06T09:46:53;97821.09;;;9.19;60.42
70304;BME280;57712;48.752;11.348;2023-04-06T09:49:30;97811.56;;;9.42;59.93
70304;BME280;57712;48.752;11.348;2023-04-06T09:52:05;97805.22;;;9.52;61.05
70304;BME280;57712;48.752;11.348;2023-04-06T09:54:34;97803.31;;;9.90;58.12
70304;BME280;57712;48.752;11.348;2023-04-06T09:57:11;97804.16;;;9.83;60.84
70304;BME280;57712;48.752;11.348;2023-04-06T10:02:25;97797.44;;;9.92;49.32
70304;BME280;57712;48.752;11.348;2023-04-06T10:05:05;97792.03;;;10.22;58.13
70304;BME280;57712;48.752;11.348;2023-04-06T10:07:36;97789.09;;;10.02;53.19
70304;BME280;57712;48.752;11.348;2023-04-06T10:10:22;97791.50;;;10.65;56.04
70304;BME280;57712;48.752;11.348;2023-04-06T10:12:49;97788.13;;;10.54;52.27
70304;BME280;57712;48.752;11.348;2023-04-06T10:15:16;97780.34;;;10.79;52.19
70304;BME280;57712;48.752;11.348;2023-04-06T10:17:47;97783.84;;;10.53;49.15
70304;BME280;57712;48.752;11.348;2023-04-06T10:20:37;97787.97;;;10.95;50.55
70304;BME280;57712;48.752;11.348;2023-04-06T10:23:13;97771.53;;;11.42;47.66
70304;BME280;57712;48.752;11.348;2023-04-06T10:25:56;97779.31;;;11.47;48.99
70304;BME280;57712;48.752;11.348;2023-04-06T10:28:24;97769.09;;;11.71;50.18
70304;BME280;57712;48.752;11.348;2023-04-06T10:30:59;97766.75;;;12.12;50.01
70304;BME280;57712;48.752;11.348;2023-04-06T10:33:27;97767.72;;;13.14;50.46
70304;BME280;57712;48.752;11.348;2023-04-06T10:35:53;97760.34;;;12.39;46.95
70304;BME280;57712;48.752;11.348;2023-04-06T10:38:33;97760.19;;;11.63;48.44
70304;BME280;57712;48.752;11.348;2023-04-06T10:41:10;97759.84;;;11.61;45.89
70304;BME280;57712;48.752;11.348;2023-04-06T10:43:38;97760.34;;;12.39;46.98
70304;BME280;57712;48.752;11.348;2023-04-06T10:46:08;97749.03;;;11.74;45.41
70304;BME280;57712;48.752;11.348;2023-04-06T10:48:43;97755.38;;;12.86;48.00
70304;BME280;57712;48.752;11.348;2023-04-06T10:53:41;97743.19;;;13.69;44.37
70304;BME280;57712;48.752;11.348;2023-04-06T10:56:12;97746.31;;;13.38;47.33
70304;BME280;57712;48.752;11.348;2023-04-06T10:58:46;97746.00;;;13.81;45.96
70304;BME280;57712;48.752;11.348;2023-04-06T11:01:19;97743.78;;;13.11;45.60
70304;BME280;57712;48.752;11.348;2023-04-06T11:03:47;97734.53;;;13.05;44.05
70304;BME280;57712;48.752;11.348;2023-04-06T11:06:28;97740.53;;;11.21;44.07
70304;BME280;57712;48.752;11.348;2023-04-06T11:08:57;97727.72;;;11.38;45.57
70304;BME280;57712;48.752;11.348;2023-04-06T11:11:25;97727.25;;;12.06;43.97
70304;BME280;57712;48.752;11.348;2023-04-06T11:13:58;97737.63;;;13.07;44.24
70304;BME280;57712;48.752;11.348;2023-04-06T11:16:27;97720.19;;;12.45;43.02
70304;BME280;57712;48.752;11.348;2023-04-06T11:18:55;97723.50;;;12.73;43.10
70304;BME280;57712;48.752;11.348;2023-04-06T11:21:46;97721.28;;;13.16;43.61
70304;BME280;57712;48.752;11.348;2023-04-06T11:26:50;97712.34;;;12.80;42.22
70304;BME280;57712;48.752;11.348;2023-04-06T11:29:19;97707.81;;;13.06;41.88
70304;BME280;57712;48.752;11.348;2023-04-06T11:31:51;97710.94;;;14.53;41.54
70304;BME280;57712;48.752;11.348;2023-04-06T11:34:22;97706.06;;;13.12;41.42
70304;BME280;57712;48.752;11.348;2023-04-06T11:36:55;97695.66;;;13.52;41.77
70304;BME280;57712;48.752;11.348;2023-04-06T11:39:25;97697.09;;;13.85;40.90
70304;BME280;57712;48.752;11.348;2023-04-06T11:41:53;97700.47;;;14.06;38.67
70304;BME280;57712;48.752;11.348;2023-04-06T11:44:39;97703.16;;;14.22;40.51
70304;BME280;57712;48.752;11.348;2023-04-06T11:47:09;97691.00;;;14.61;40.38
70304;BME280;57712;48.752;11.348;2023-04-06T11:49:37;97695.19;;;15.73;35.77
70304;BME280;57712;48.752;11.348;2023-04-06T11:52:22;97693.72;;;15.47;37.10
70304;BME280;57712;48.752;11.348;2023-04-06T11:54:51;97697.94;;;14.66;38.39
70304;BME280;57712;48.752;11.348;2023-04-06T11:57:19;97685.59;;;13.13;39.22
70304;BME280;57712;48.752;11.348;2023-04-06T11:59:46;97685.69;;;14.00;41.10
70304;BME280;57712;48.752;11.348;2023-04-06T12:02:14;97682.63;;;13.69;39.10
70304;BME280;57712;48.752;11.348;2023-04-06T12:04:40;97683.09;;;13.80;39.24
70304;BME280;57712;48.752;11.348;2023-04-06T12:07:07;97675.16;;;15.13;39.43
70304;BME280;57712;48.752;11.348;2023-04-06T12:09:34;97678.50;;;16.21;34.86
70304;BME280;57712;48.752;11.348;2023-04-06T12:12:03;97677.97;;;14.75;36.12
70304;BME280;57712;48.752;11.348;2023-04-06T12:14:31;97665.53;;;15.65;34.68
70304;BME280;57712;48.752;11.348;2023-04-06T12:16:58;97667.78;;;14.21;36.45
70304;BME280;57712;48.752;11.348;2023-04-06T12:19:26;97671.59;;;13.40;38.58
70304;BME280;57712;48.752;11.348;2023-04-06T12:21:54;97668.00;;;12.78;38.00
70304;BME280;57712;48.752;11.348;2023-04-06T12:24:21;97662.75;;;12.99;38.10
70304;BME280;57712;48.752;11.348;2023-04-06T12:26:48;97667.78;;;14.21;35.30
70304;BME280;57712;48.752;11.348;2023-04-06T12:29:19;97658.13;;;15.27;35.11
70304;BME280;57712;48.752;11.348;2023-04-06T12:31:46;97655.16;;;15.56;36.21
70304;BME280;57712;48.752;11.348;2023-04-06T12:34:13;97659.13;;;14.73;36.87
70304;BME280;57712;48.752;11.348;2023-04-06T12:36:39;97665.09;;;14.04;36.71
70304;BME280;57712;48.752;11.348;2023-04-06T12:39:06;97665.22;;;14.26;35.46
70304;BME280;57712;48.752;11.348;2023-04-06T12:41:33;97659.78;;;12.94;36.33
70304;BME280;57712;48.752;11.348;2023-04-06T12:44:00;97654.78;;;12.89;39.43
70304;BME280;57712;48.752;11.348;2023-04-06T12:46:27;97656.47;;;13.32;37.42
70304;BME280;57712;48.752;11.348;2023-04-06T12:48:54;97650.81;;;12.41;39.39
70304;BME280;57712;48.752;11.348;2023-04-06T12:51:21;97647.72;;;12.55;39.63
70304;BME280;57712;48.752;11.348;2023-04-06T12:53:48;97642.91;;;12.92;39.85
70304;BME280;57712;48.752;11.348;2023-04-06T12:56:16;97642.53;;;13.68;40.18
70304;BME280;57712;48.752;11.348;2023-04-06T12:58:44;97644.94;;;12.23;40.30